Del Norte, CO

2:02 AM MDT on September 22, 2014 (GMT -0600)
Pagosa Springs | Change Station
CLOSE
Current Station
Airport
Location: Pagosa Springs,
Elevation: 7657 ft
Nearby Weather Stations

Elev 7657 ft 37.29 °N, 107.06 °W | Updated 27 minutes ago

Rain
Rain
58 °F
Feels Like 58 °F
N
0
Wind Variable Wind from North

Today
High -- | Low -- °F
--% Chance of Precip.
Yesterday
High -- | Low -- °F
Precip. -- in
6:53 AM 7:02 PM
Waning Crescent, 3% visible
Pressure 30.42 in
Visibility 10.0 miles
Clouds Scattered Clouds 3900 ft
Mostly Cloudy 7500 ft
Overcast 12000 ft
Dew Point 48 °F
Humidity 69%
Rainfall 0.00 in
Snow Depth Not available.
UV 0 out of 12
Pollen 4.60 out of 12
Air Quality Not available.
Flu Activity Not available.
METAR KPSO 220735Z AUTO 00000KT 10SM VCTS SCT039 BKN075 OVC120 15/09 A3042 RMK AO2 T01450088

More Conditions Fewer Conditions

Pressure 30.42 in
Visibility 10.0 miles
Clouds Scattered Clouds 3900 ft
Mostly Cloudy 7500 ft
Overcast 12000 ft
Dew Point 48 °F
Humidity 69%
Rainfall 0.00 in
Snow Depth Not available.
UV 0 out of 12
Pollen 4.60 out of 12
Air Quality Not available.
Flu Activity Not available.
METAR KPSO 220735Z AUTO 00000KT 10SM VCTS SCT039 BKN075 OVC120 15/09 A3042 RMK AO2 T01450088

More Conditions Fewer Conditions

10-Day Weather Forecast

Almanac

Astronomy

Sep. 22, 2014 Rise Set
Actual Time 6:53 AM MDT 7:02 PM MDT
Civil Twilight 6:27 AM MDT 7:28 PM MDT
Nautical Twilight 5:56 AM MDT 7:59 PM MDT
Astronomical Twilight 5:25 AM MDT 8:30 PM MDT
Moon 5:25 AM MDT 6:10 PM MDT
Length of Visible Light 13h 01m
Length of Day
12h 09m
Tomorrow will be 2m 24s shorter.
Waning Crescent, 3% of the Moon is Illuminated
Today
Waning Crescent
Sep 24
New
Oct 1
First Quarter
Oct 8
Full
Oct 15
Last Quarter

Today's Extremes

State Highs State Lows

Community

WunderPhotos

Upload Photos

1,755,392 photos uploaded!

Nearby

Snow Depth

Station Depth Elevation
Medano Pass 0 in 9620 ft
Bear RIver 0 in 9080 ft
Niwot 1 in 9910 ft
Lone Cone 1 in 9600 ft
Phantom Valley 0 in 9030 ft

Earthquake Activity

City Distance Mag. Time & Date
No recent earthquake activity has been reported nearby.
Minimum magnitude displayed is 2.5.

Coastal Water Temperatures

Place Temperature
No Stations Reporting

Nearby Weather Stations